createdAt,value
2019-05-06T00:00:00.639Z,3.43
2019-05-06T00:01:00.846Z,3.40
2019-05-06T00:02:01.052Z,3.27
2019-05-06T00:03:01.207Z,3.30
2019-05-06T00:04:01.405Z,3.16
2019-05-06T00:05:03.975Z,3.21
2019-05-06T00:06:03.807Z,3.11
2019-05-06T00:07:04.148Z,3.24
2019-05-06T00:08:03.927Z,3.05
2019-05-06T00:09:03.900Z,3.08
2019-05-06T00:10:05.640Z,3.06
2019-05-06T00:11:04.758Z,3.00
2019-05-06T00:12:04.001Z,2.97
2019-05-06T00:13:04.707Z,3.01
2019-05-06T00:14:04.293Z,2.93
2019-05-06T00:15:04.014Z,2.93
2019-05-06T00:16:04.678Z,2.90
2019-05-06T00:17:04.047Z,2.85
2019-05-06T00:18:05.002Z,2.72
2019-05-06T00:19:04.871Z,2.83
2019-05-06T00:20:05.368Z,2.82
2019-05-06T00:21:04.796Z,2.82
2019-05-06T00:22:05.744Z,2.85
2019-05-06T00:23:04.884Z,2.72
2019-05-06T00:24:05.063Z,2.61
2019-05-06T00:25:05.423Z,2.68
2019-05-06T00:26:06.398Z,2.69
2019-05-06T00:27:05.539Z,2.72
2019-05-06T00:28:06.192Z,2.72
2019-05-06T00:29:06.904Z,2.69
2019-05-06T00:30:06.043Z,2.69
2019-05-06T00:31:12.658Z,2.61
2019-05-06T00:32:08.375Z,2.65
2019-05-06T00:33:06.473Z,2.59
2019-05-06T00:34:06.640Z,2.52
2019-05-06T00:35:06.832Z,2.43
2019-05-06T00:36:07.007Z,2.50
2019-05-06T00:37:07.205Z,2.51
2019-05-06T00:38:07.412Z,2.52
2019-05-06T00:39:07.605Z,2.54
2019-05-06T00:40:07.807Z,2.55
2019-05-06T00:41:07.979Z,2.57
2019-05-06T00:42:08.159Z,2.50
2019-05-06T00:43:08.345Z,2.50
2019-05-06T00:44:08.518Z,2.58
2019-05-06T00:45:08.705Z,2.58
2019-05-06T00:46:08.884Z,2.50
2019-05-06T00:47:09.057Z,2.54
2019-05-06T00:48:09.227Z,2.43
2019-05-06T00:49:09.408Z,2.41
2019-05-06T00:50:09.598Z,2.47
2019-05-06T00:51:09.754Z,2.46
2019-05-06T00:52:09.899Z,2.41
2019-05-06T00:53:10.047Z,2.47
2019-05-06T00:54:10.228Z,2.44
2019-05-06T00:55:10.414Z,2.46
2019-05-06T00:56:10.586Z,2.50
2019-05-06T00:57:10.733Z,2.55
2019-05-06T00:58:10.897Z,2.57
2019-05-06T00:59:11.108Z,2.54
2019-05-06T01:00:13.463Z,2.55
2019-05-06T01:01:24.078Z,2.76
2019-05-06T01:02:14.124Z,2.72
2019-05-06T01:03:13.982Z,2.75
2019-05-06T01:04:13.939Z,2.80
2019-05-06T01:05:13.885Z,2.85
2019-05-06T01:06:14.217Z,2.75
2019-05-06T01:07:14.021Z,2.82
2019-05-06T01:08:14.137Z,2.85
2019-05-06T01:09:14.110Z,2.91
2019-05-06T01:10:14.426Z,2.87
2019-05-06T01:11:14.421Z,2.77
2019-05-06T01:12:14.424Z,2.64
2019-05-06T01:13:14.630Z,2.55
2019-05-06T01:14:14.878Z,2.55
2019-05-06T01:15:14.926Z,2.44
2019-05-06T01:16:15.717Z,2.43
2019-05-06T01:17:14.214Z,2.40
2019-05-06T01:18:14.415Z,2.43
2019-05-06T01:19:14.587Z,2.33
2019-05-06T01:20:14.766Z,2.26
2019-05-06T01:21:14.931Z,2.21
2019-05-06T01:22:16.099Z,2.25
2019-05-06T01:23:15.260Z,2.15
2019-05-06T01:24:15.410Z,2.07
2019-05-06T01:25:15.583Z,2.15
2019-05-06T01:26:15.757Z,2.10
2019-05-06T01:27:15.927Z,1.97
2019-05-06T01:28:16.120Z,2.04
2019-05-06T01:29:16.291Z,2.03
2019-05-06T01:30:16.490Z,2.01
2019-05-06T01:31:16.705Z,1.93
2019-05-06T01:32:16.874Z,1.85
2019-05-06T01:33:17.071Z,1.93
2019-05-06T01:34:17.263Z,1.79
2019-05-06T01:35:17.461Z,1.75
2019-05-06T01:36:17.619Z,1.81
2019-05-06T01:37:17.799Z,1.76
2019-05-06T01:38:17.982Z,1.75
2019-05-06T01:39:18.179Z,1.76
2019-05-06T01:40:18.378Z,1.70
2019-05-06T01:41:18.542Z,1.74
2019-05-06T01:42:18.743Z,1.68
2019-05-06T01:43:18.930Z,1.68
2019-05-06T01:44:19.123Z,1.67
2019-05-06T01:45:19.331Z,1.70
2019-05-06T01:46:19.530Z,1.68
2019-05-06T01:47:19.755Z,1.74
2019-05-06T01:48:19.956Z,1.71
2019-05-06T01:49:20.158Z,1.71
2019-05-06T01:50:20.338Z,1.75
2019-05-06T01:51:20.556Z,1.68
2019-05-06T01:52:20.708Z,1.70
2019-05-06T01:53:20.940Z,1.71
2019-05-06T01:54:21.133Z,1.76
2019-05-06T01:55:23.757Z,1.79
2019-05-06T01:56:21.526Z,1.75
2019-05-06T01:57:21.703Z,1.79
2019-05-06T01:58:24.104Z,1.88
2019-05-06T01:59:22.048Z,1.82
2019-05-06T02:00:23.724Z,1.81
2019-05-06T02:01:24.911Z,1.81
2019-05-06T02:02:23.851Z,1.76
2019-05-06T02:03:24.242Z,1.92
2019-05-06T02:04:24.491Z,1.79
2019-05-06T02:05:24.324Z,1.71
2019-05-06T02:06:24.954Z,1.75
2019-05-06T02:07:24.586Z,1.68
2019-05-06T02:08:24.421Z,1.67
2019-05-06T02:09:24.915Z,1.76
2019-05-06T02:10:24.066Z,1.68
2019-05-06T02:11:24.267Z,1.67
2019-05-06T02:12:24.729Z,1.64
2019-05-06T02:13:25.665Z,1.66
2019-05-06T02:14:24.820Z,1.64
2019-05-06T02:15:25.012Z,1.66
2019-05-06T02:16:25.156Z,1.71
2019-05-06T02:17:25.368Z,1.66
2019-05-06T02:18:25.560Z,1.64
2019-05-06T02:19:25.748Z,1.56
2019-05-06T02:20:25.927Z,1.60
2019-05-06T02:21:26.456Z,1.67
2019-05-06T02:22:27.331Z,1.67
2019-05-06T02:23:26.473Z,1.60
2019-05-06T02:24:26.638Z,1.60
2019-05-06T02:25:26.826Z,1.68
2019-05-06T02:26:26.997Z,1.66
2019-05-06T02:27:27.204Z,1.63
2019-05-06T02:28:27.396Z,1.64
2019-05-06T02:29:27.555Z,1.78
2019-05-06T02:30:27.713Z,1.67
2019-05-06T02:31:27.890Z,1.71
2019-05-06T02:32:31.605Z,1.79
2019-05-06T02:33:29.254Z,1.71
2019-05-06T02:34:28.386Z,1.75
2019-05-06T02:35:29.558Z,1.81
2019-05-06T02:36:28.658Z,1.79
2019-05-06T02:37:28.825Z,1.78
2019-05-06T02:38:39.160Z,1.75
2019-05-06T02:39:33.927Z,1.76
2019-05-06T02:40:29.505Z,1.79
2019-05-06T02:41:29.687Z,1.86
2019-05-06T02:42:29.895Z,1.85
2019-05-06T02:43:30.054Z,1.85
2019-05-06T02:44:33.381Z,1.84
2019-05-06T02:45:33.207Z,2.01
2019-05-06T02:46:33.515Z,2.10
2019-05-06T02:47:34.055Z,2.23
2019-05-06T02:48:33.557Z,2.32
2019-05-06T02:49:32.996Z,2.33
2019-05-06T02:50:33.924Z,2.36
2019-05-06T02:51:33.351Z,2.39
2019-05-06T02:52:33.049Z,2.40
2019-05-06T02:53:33.638Z,2.44
2019-05-06T02:54:34.580Z,2.57
2019-05-06T02:55:36.063Z,2.50
2019-05-06T02:56:33.531Z,2.46
2019-05-06T02:57:33.490Z,2.41
2019-05-06T02:58:33.789Z,2.52
2019-05-06T02:59:33.286Z,2.55
2019-05-06T03:00:34.082Z,2.58
2019-05-06T03:01:34.012Z,2.62
2019-05-06T03:02:43.004Z,2.65
2019-05-06T03:03:35.579Z,2.76
2019-05-06T03:04:33.814Z,2.79
2019-05-06T03:05:33.981Z,2.76
2019-05-06T03:06:34.179Z,2.80
2019-05-06T03:07:37.613Z,2.76
2019-05-06T03:08:35.477Z,2.80
2019-05-06T03:09:35.605Z,2.88
2019-05-06T03:10:34.748Z,2.80
2019-05-06T03:11:34.936Z,2.79
2019-05-06T03:12:36.121Z,2.75
2019-05-06T03:13:35.239Z,2.82
2019-05-06T03:14:35.402Z,2.87
2019-05-06T03:15:35.565Z,2.77
2019-05-06T03:16:35.717Z,2.79
2019-05-06T03:17:35.894Z,2.80
2019-05-06T03:18:36.075Z,2.76
2019-05-06T03:19:36.232Z,2.72
2019-05-06T03:20:36.416Z,2.77
2019-05-06T03:21:37.078Z,2.69
2019-05-06T03:22:37.815Z,2.57
2019-05-06T03:23:37.099Z,2.54
2019-05-06T03:24:37.270Z,2.59
2019-05-06T03:25:37.470Z,2.58
2019-05-06T03:26:37.628Z,2.46
2019-05-06T03:27:38.786Z,2.55
2019-05-06T03:28:37.950Z,2.43
2019-05-06T03:29:38.094Z,2.44
2019-05-06T03:30:38.271Z,2.43
2019-05-06T03:31:38.429Z,2.50
2019-05-06T03:33:16.850Z,2.39
2019-05-06T03:33:59.794Z,2.37
2019-05-06T03:35:00.646Z,2.34
2019-05-06T03:35:55.978Z,2.30
2019-05-06T03:36:48.020Z,2.33
2019-05-06T03:37:43.797Z,2.32
2019-05-06T03:38:42.946Z,2.30
2019-05-06T03:39:39.756Z,2.39
2019-05-06T03:40:45.102Z,2.40
2019-05-06T03:41:43.679Z,2.46
2019-05-06T03:42:42.665Z,2.46
2019-05-06T03:43:43.339Z,2.44
2019-05-06T03:44:43.611Z,2.44
2019-05-06T03:45:42.886Z,2.50
2019-05-06T03:46:43.036Z,2.43
2019-05-06T03:47:43.319Z,2.52
2019-05-06T03:48:44.222Z,2.51
2019-05-06T03:49:42.834Z,2.59
2019-05-06T03:50:44.030Z,2.61
2019-05-06T03:51:43.101Z,2.68
2019-05-06T03:52:43.133Z,2.70
2019-05-06T03:53:43.681Z,2.75
2019-05-06T03:54:45.306Z,2.64
2019-05-06T03:55:46.746Z,2.65
2019-05-06T03:56:43.451Z,2.87
2019-05-06T03:57:43.903Z,2.87
2019-05-06T03:58:43.575Z,2.75
2019-05-06T03:59:44.259Z,2.82
2019-05-06T04:00:43.838Z,2.61
2019-05-06T04:01:44.539Z,2.68
2019-05-06T04:02:43.770Z,2.64
2019-05-06T04:03:48.667Z,2.59
2019-05-06T04:04:46.004Z,2.57
2019-05-06T04:05:44.178Z,2.46
2019-05-06T04:06:44.361Z,2.44
2019-05-06T04:07:45.989Z,2.46
2019-05-06T04:08:45.772Z,2.41
2019-05-06T04:09:44.956Z,2.41
2019-05-06T04:10:45.160Z,2.39
2019-05-06T04:11:45.342Z,2.37
2019-05-06T04:12:46.544Z,2.39
2019-05-06T04:13:45.749Z,2.40
2019-05-06T04:14:45.927Z,2.40
2019-05-06T04:15:47.617Z,2.43
2019-05-06T04:16:47.293Z,2.40
2019-05-06T04:17:46.427Z,2.39
2019-05-06T04:18:46.628Z,2.40
2019-05-06T04:19:46.808Z,2.39
2019-05-06T04:20:47.000Z,2.37
2019-05-06T04:21:47.206Z,2.40
2019-05-06T04:22:47.385Z,2.39
2019-05-06T04:23:48.575Z,2.36
2019-05-06T04:24:47.692Z,2.39
2019-05-06T04:25:48.861Z,2.46
2019-05-06T04:26:48.030Z,2.58
2019-05-06T04:27:48.212Z,2.55
2019-05-06T04:28:48.380Z,2.58
2019-05-06T04:29:48.543Z,2.55
2019-05-06T04:30:48.727Z,2.70
2019-05-06T04:31:48.945Z,2.70
2019-05-06T04:32:49.089Z,2.79
2019-05-06T04:34:05.293Z,2.79
2019-05-06T04:34:53.444Z,2.85
2019-05-06T04:35:49.671Z,2.83
2019-05-06T04:36:49.879Z,2.79
2019-05-06T04:37:50.045Z,2.87
2019-05-06T04:38:50.217Z,2.85
2019-05-06T04:39:53.173Z,2.97
2019-05-06T04:40:53.526Z,2.87
2019-05-06T04:41:53.630Z,3.11
2019-05-06T04:42:52.745Z,3.09
2019-05-06T04:43:53.311Z,3.08
2019-05-06T04:44:53.088Z,3.19
2019-05-06T04:45:54.024Z,3.22
2019-05-06T04:46:54.402Z,3.21
2019-05-06T04:47:53.782Z,3.48
2019-05-06T04:48:53.865Z,3.48
2019-05-06T04:49:53.426Z,3.45
2019-05-06T04:50:53.624Z,3.61
2019-05-06T04:51:54.269Z,3.59
2019-05-06T04:52:53.753Z,3.64
2019-05-06T04:53:53.953Z,3.73
2019-05-06T04:54:53.497Z,3.74
2019-05-06T04:55:54.275Z,3.84
2019-05-06T04:56:53.850Z,3.81
2019-05-06T04:57:54.635Z,3.92
2019-05-06T04:58:54.115Z,3.88
2019-05-06T04:59:55.024Z,3.84
2019-05-06T05:00:54.279Z,3.89
2019-05-06T05:01:54.443Z,4.03
2019-05-06T05:02:55.116Z,4.06
2019-05-06T05:03:55.792Z,4.18
2019-05-06T05:04:54.925Z,4.13
2019-05-06T05:05:55.096Z,4.16
2019-05-06T05:06:55.263Z,4.13
2019-05-06T05:07:55.418Z,4.16
2019-05-06T05:08:55.627Z,4.13
2019-05-06T05:09:55.772Z,4.20
2019-05-06T05:10:55.922Z,4.30
2019-05-06T05:11:56.078Z,4.40
2019-05-06T05:12:56.257Z,4.45
2019-05-06T05:13:56.451Z,4.43
2019-05-06T05:14:56.603Z,4.46
2019-05-06T05:15:56.798Z,4.60
2019-05-06T05:16:56.960Z,4.56
2019-05-06T05:17:57.195Z,4.49
2019-05-06T05:18:57.252Z,4.53
2019-05-06T05:19:57.401Z,4.50
2019-05-06T05:20:57.560Z,4.46
2019-05-06T05:21:57.725Z,4.45
2019-05-06T05:22:57.932Z,4.46
2019-05-06T05:23:58.146Z,4.53
2019-05-06T05:24:58.356Z,4.49
2019-05-06T05:25:58.531Z,4.50
2019-05-06T05:26:58.691Z,4.53
2019-05-06T05:27:58.879Z,4.46
2019-05-06T05:28:59.087Z,4.48
2019-05-06T05:29:59.237Z,4.61
2019-05-06T05:30:59.390Z,4.48
2019-05-06T05:31:59.515Z,4.58
2019-05-06T05:32:59.682Z,4.60
2019-05-06T05:34:01.928Z,4.57
2019-05-06T05:35:02.107Z,4.56
2019-05-06T05:36:02.093Z,4.60
2019-05-06T05:37:00.347Z,4.57
2019-05-06T05:38:00.520Z,4.64
2019-05-06T05:39:03.095Z,4.58
2019-05-06T05:40:02.954Z,4.60
2019-05-06T05:41:02.968Z,4.74
2019-05-06T05:42:02.875Z,4.67
2019-05-06T05:43:02.898Z,4.70
2019-05-06T05:44:02.521Z,4.78
2019-05-06T05:45:02.880Z,4.75
2019-05-06T05:46:03.073Z,4.74
2019-05-06T05:47:03.526Z,4.75
2019-05-06T05:48:03.226Z,4.71
2019-05-06T05:49:02.954Z,4.76
2019-05-06T05:50:03.533Z,4.95
2019-05-06T05:51:03.312Z,4.87
2019-05-06T05:52:03.846Z,4.97
2019-05-06T05:53:02.985Z,4.97
2019-05-06T05:54:03.150Z,4.92
2019-05-06T05:55:03.288Z,4.89
2019-05-06T05:56:03.465Z,4.92
2019-05-06T05:57:03.635Z,4.95
2019-05-06T05:58:03.777Z,5.00
2019-05-06T05:59:03.914Z,4.97
2019-05-06T06:00:04.210Z,4.87
2019-05-06T06:01:04.408Z,4.97
2019-05-06T06:02:04.551Z,5.05
2019-05-06T06:03:07.101Z,5.08
2019-05-06T06:04:05.927Z,5.08
2019-05-06T06:05:05.164Z,5.05
2019-05-06T06:06:05.346Z,5.20
2019-05-06T06:07:05.519Z,5.19
2019-05-06T06:08:05.661Z,5.20
2019-05-06T06:09:05.840Z,5.29
2019-05-06T06:10:06.001Z,5.34
2019-05-06T06:11:06.153Z,5.29
2019-05-06T06:12:06.325Z,5.36
2019-05-06T06:13:06.463Z,5.28
2019-05-06T06:14:06.692Z,5.41
2019-05-06T06:15:06.841Z,5.41
2019-05-06T06:16:06.999Z,5.43
2019-05-06T06:17:07.182Z,5.54
2019-05-06T06:18:07.334Z,5.64
2019-05-06T06:19:07.469Z,5.55
2019-05-06T06:20:07.656Z,5.64
2019-05-06T06:21:17.568Z,5.54
2019-05-06T06:22:11.801Z,5.65
2019-05-06T06:23:08.295Z,5.76
2019-05-06T06:24:08.439Z,5.79
2019-05-06T06:25:08.598Z,5.80
2019-05-06T06:26:08.731Z,5.92
2019-05-06T06:27:08.866Z,5.95
2019-05-06T06:28:09.073Z,6.02
2019-05-06T06:29:09.146Z,6.12
2019-05-06T06:30:09.301Z,6.16
2019-05-06T06:31:09.454Z,6.16
2019-05-06T06:32:09.602Z,6.10
2019-05-06T06:33:09.805Z,5.90
2019-05-06T06:34:09.963Z,5.77
2019-05-06T06:35:14.142Z,5.79
2019-05-06T06:36:12.297Z,5.95
2019-05-06T06:37:13.236Z,5.95
2019-05-06T06:38:12.295Z,5.97
2019-05-06T06:39:12.472Z,6.07
2019-05-06T06:40:13.002Z,6.09
2019-05-06T06:41:12.131Z,6.22
2019-05-06T06:42:12.743Z,6.26
2019-05-06T06:43:12.489Z,6.07
2019-05-06T06:44:13.221Z,6.20
2019-05-06T06:45:12.809Z,5.88
2019-05-06T06:46:12.659Z,6.07
2019-05-06T06:47:13.137Z,6.12
2019-05-06T06:48:12.434Z,6.22
2019-05-06T06:49:13.532Z,6.17
2019-05-06T06:50:12.729Z,6.15
2019-05-06T06:51:12.911Z,6.16
2019-05-06T06:52:14.952Z,6.02
2019-05-06T06:53:14.380Z,5.97
2019-05-06T06:54:13.439Z,5.98
2019-05-06T06:55:13.604Z,6.07
2019-05-06T06:56:13.807Z,6.09
2019-05-06T06:57:13.967Z,6.16
2019-05-06T06:58:14.110Z,6.17
2019-05-06T06:59:14.284Z,6.10
2019-05-06T07:00:14.429Z,6.31
2019-05-06T07:01:14.598Z,6.29
2019-05-06T07:02:14.759Z,6.31
2019-05-06T07:03:14.896Z,6.13
2019-05-06T07:04:15.055Z,6.31
2019-05-06T07:05:24.917Z,6.13
2019-05-06T07:06:17.335Z,6.28
2019-05-06T07:07:15.570Z,6.19
2019-05-06T07:08:16.759Z,6.35
2019-05-06T07:09:15.898Z,6.49
2019-05-06T07:10:16.053Z,6.59
2019-05-06T07:11:16.221Z,6.54
2019-05-06T07:12:16.469Z,6.65
2019-05-06T07:13:16.538Z,6.56
2019-05-06T07:14:16.716Z,6.59
2019-05-06T07:15:16.880Z,6.64
2019-05-06T07:16:17.044Z,6.67
2019-05-06T07:17:17.226Z,6.70
2019-05-06T07:18:17.396Z,6.77
2019-05-06T07:19:17.556Z,6.77
2019-05-06T07:20:17.745Z,6.85
2019-05-06T07:21:17.929Z,6.92
2019-05-06T07:22:18.106Z,6.83
2019-05-06T07:23:18.272Z,6.78
2019-05-06T07:24:18.464Z,6.92
2019-05-06T07:25:18.663Z,6.96
2019-05-06T07:26:18.835Z,7.13
2019-05-06T07:27:18.998Z,7.25
2019-05-06T07:28:19.170Z,7.14
2019-05-06T07:29:24.255Z,7.04
2019-05-06T07:30:23.018Z,6.95
2019-05-06T07:31:23.817Z,6.90
2019-05-06T07:32:23.217Z,7.05
2019-05-06T07:33:22.649Z,7.15
2019-05-06T07:34:22.729Z,7.15
2019-05-06T07:35:22.424Z,7.46
2019-05-06T07:36:22.761Z,7.67
2019-05-06T07:37:22.126Z,7.75
2019-05-06T07:38:23.109Z,7.80
2019-05-06T07:39:24.055Z,7.98
2019-05-06T07:40:22.354Z,8.05
2019-05-06T07:41:23.494Z,8.18
2019-05-06T07:42:22.737Z,8.36
2019-05-06T07:43:22.858Z,8.45
2019-05-06T07:44:22.568Z,8.39
2019-05-06T07:45:23.256Z,8.52
2019-05-06T07:46:23.564Z,8.64
2019-05-06T07:47:23.959Z,8.79
2019-05-06T07:48:23.691Z,8.96
2019-05-06T07:49:23.548Z,8.87
2019-05-06T07:50:23.984Z,8.74
2019-05-06T07:51:23.847Z,8.52
2019-05-06T07:52:24.264Z,8.52
2019-05-06T07:53:23.487Z,8.42
2019-05-06T07:54:23.616Z,8.68
2019-05-06T07:55:23.795Z,8.72
2019-05-06T07:56:23.958Z,8.57
2019-05-06T07:57:24.127Z,8.36
2019-05-06T07:58:24.296Z,8.60
2019-05-06T07:59:24.455Z,8.49
2019-05-06T08:00:24.598Z,8.68
2019-05-06T08:01:26.171Z,8.78
2019-05-06T08:02:25.881Z,8.86
2019-05-06T08:03:25.166Z,9.02
2019-05-06T08:04:25.333Z,8.90
2019-05-06T08:05:25.496Z,9.13
2019-05-06T08:06:25.625Z,9.30
2019-05-06T08:07:25.778Z,9.33
2019-05-06T08:08:25.929Z,9.49
2019-05-06T08:09:26.116Z,9.77
2019-05-06T08:10:26.298Z,9.72
2019-05-06T08:11:26.466Z,9.72
2019-05-06T08:12:26.627Z,9.77
2019-05-06T08:13:26.813Z,9.87
2019-05-06T08:14:26.963Z,9.84
2019-05-06T08:15:27.141Z,10.21
2019-05-06T08:16:27.328Z,10.59
2019-05-06T08:17:27.488Z,10.86
2019-05-06T08:18:27.641Z,10.90
2019-05-06T08:19:27.841Z,10.89
2019-05-06T08:20:27.984Z,10.98
2019-05-06T08:21:28.189Z,10.53
2019-05-06T08:22:28.355Z,10.62
2019-05-06T08:23:28.572Z,10.83
2019-05-06T08:24:28.735Z,11.44
2019-05-06T08:25:28.955Z,11.71
2019-05-06T08:26:29.179Z,11.37
2019-05-06T08:27:29.355Z,11.51
2019-05-06T08:28:38.631Z,10.98
2019-05-06T08:29:33.028Z,11.22
2019-05-06T08:30:29.844Z,11.33
2019-05-06T08:31:29.965Z,11.63
2019-05-06T08:32:32.175Z,11.86
2019-05-06T08:33:32.572Z,11.96
2019-05-06T08:34:30.490Z,12.03
2019-05-06T08:35:30.646Z,12.17
2019-05-06T08:36:32.822Z,11.85
2019-05-06T08:37:32.161Z,11.58
2019-05-06T08:38:32.720Z,11.37
2019-05-06T08:39:32.773Z,11.19
2019-05-06T08:40:32.181Z,10.75
2019-05-06T08:41:33.324Z,10.72
2019-05-06T08:42:32.923Z,10.92
2019-05-06T08:43:33.289Z,10.58
2019-05-06T08:44:32.433Z,10.49
2019-05-06T08:45:32.658Z,10.38
2019-05-06T08:46:32.996Z,10.33
2019-05-06T08:47:33.081Z,10.38
2019-05-06T08:48:34.295Z,10.15
2019-05-06T08:49:33.457Z,10.12
2019-05-06T08:50:33.642Z,9.85
2019-05-06T08:51:33.830Z,9.87
2019-05-06T08:52:34.009Z,9.82
2019-05-06T08:53:34.324Z,9.70
2019-05-06T08:54:34.384Z,9.77
2019-05-06T08:55:34.603Z,9.67
2019-05-06T08:56:34.797Z,9.76
2019-05-06T08:57:34.970Z,9.66
2019-05-06T08:58:35.178Z,9.87
2019-05-06T08:59:35.343Z,10.49
2019-05-06T09:00:35.559Z,11.34
2019-05-06T09:01:35.713Z,11.59
2019-05-06T09:02:35.874Z,12.26
2019-05-06T09:03:36.047Z,12.14
2019-05-06T09:04:36.251Z,12.28
2019-05-06T09:05:36.443Z,12.66
2019-05-06T09:06:36.707Z,12.57
2019-05-06T09:07:36.771Z,12.62
2019-05-06T09:08:36.936Z,13.52
2019-05-06T09:09:37.152Z,13.98
2019-05-06T09:10:37.331Z,13.64
2019-05-06T09:11:37.486Z,12.94
2019-05-06T09:12:37.640Z,11.86
2019-05-06T09:13:37.869Z,11.16
2019-05-06T09:14:38.071Z,10.84
2019-05-06T09:15:38.274Z,10.55
2019-05-06T09:16:38.501Z,10.38
2019-05-06T09:17:38.670Z,10.21
2019-05-06T09:18:38.856Z,9.82
2019-05-06T09:19:39.050Z,9.82
2019-05-06T09:20:39.235Z,9.76
2019-05-06T09:21:43.347Z,9.91
2019-05-06T09:22:42.937Z,10.02
2019-05-06T09:23:42.195Z,10.30
2019-05-06T09:24:39.965Z,10.98
2019-05-06T09:25:42.332Z,11.16
2019-05-06T09:26:42.935Z,11.60
2019-05-06T09:27:42.138Z,11.85
2019-05-06T09:28:42.658Z,11.62
2019-05-06T09:29:42.994Z,11.55
2019-05-06T09:30:43.081Z,11.48
2019-05-06T09:31:42.772Z,11.55
2019-05-06T09:32:42.939Z,11.33
2019-05-06T09:33:42.482Z,11.31
2019-05-06T09:34:43.237Z,11.16
2019-05-06T09:35:42.927Z,11.23
2019-05-06T09:36:51.365Z,11.23
2019-05-06T09:37:44.353Z,11.33
2019-05-06T09:38:42.635Z,11.40
2019-05-06T09:39:43.221Z,11.30
2019-05-06T09:40:43.955Z,10.92
2019-05-06T09:41:46.608Z,11.19
2019-05-06T09:42:45.209Z,11.27
2019-05-06T09:43:43.582Z,11.26
2019-05-06T09:44:43.644Z,11.20
2019-05-06T09:45:43.824Z,11.18
2019-05-06T09:46:43.983Z,11.34
2019-05-06T09:47:44.165Z,11.38
2019-05-06T09:48:44.327Z,11.12
2019-05-06T09:49:44.497Z,11.01
2019-05-06T09:50:46.277Z,11.08
2019-05-06T09:51:45.808Z,11.77
2019-05-06T09:52:44.993Z,11.73
2019-05-06T09:53:45.178Z,11.60
2019-05-06T09:54:45.368Z,12.43
2019-05-06T09:55:45.573Z,12.39
2019-05-06T09:56:45.770Z,13.05
2019-05-06T09:57:45.928Z,12.88
2019-05-06T09:58:46.137Z,12.91
2019-05-06T09:59:46.336Z,13.09
2019-05-06T10:00:46.537Z,12.91
2019-05-06T10:01:46.778Z,13.50
2019-05-06T10:02:49.504Z,13.49
2019-05-06T10:03:48.126Z,13.49
2019-05-06T10:04:47.285Z,13.40
2019-05-06T10:05:47.442Z,13.50
2019-05-06T10:06:56.257Z,13.75
2019-05-06T10:07:49.790Z,13.83
2019-05-06T10:08:47.986Z,13.79
2019-05-06T10:09:48.129Z,13.46
2019-05-06T10:10:56.773Z,13.76
2019-05-06T10:11:52.418Z,13.79
2019-05-06T10:12:48.627Z,14.12
2019-05-06T10:13:48.820Z,14.38
2019-05-06T10:14:49.027Z,14.73
2019-05-06T10:15:49.196Z,15.25
2019-05-06T10:16:49.433Z,15.02
2019-05-06T10:17:49.630Z,14.40
2019-05-06T10:18:52.265Z,14.22
2019-05-06T10:19:50.083Z,14.93
2019-05-06T10:20:50.278Z,14.41
2019-05-06T10:21:50.446Z,13.39
2019-05-06T10:22:52.469Z,12.66
2019-05-06T10:23:52.788Z,12.30
2019-05-06T10:24:52.289Z,12.02
2019-05-06T10:25:52.404Z,12.05
2019-05-06T10:26:52.512Z,12.10
2019-05-06T10:27:52.483Z,12.36
2019-05-06T10:28:52.862Z,12.51
2019-05-06T10:29:52.308Z,12.61
2019-05-06T10:30:53.237Z,13.27
2019-05-06T10:31:52.550Z,14.03
2019-05-06T10:32:53.627Z,15.12
2019-05-06T10:33:53.215Z,15.98
2019-05-06T10:34:53.913Z,16.50
2019-05-06T10:35:53.111Z,17.23
2019-05-06T10:36:54.349Z,17.31
2019-05-06T10:37:53.529Z,18.26
2019-05-06T10:38:53.751Z,17.80
2019-05-06T10:39:53.959Z,17.52
2019-05-06T10:41:01.061Z,17.54
2019-05-06T10:41:56.304Z,17.75
2019-05-06T10:42:54.484Z,18.18
2019-05-06T10:43:54.743Z,17.95
2019-05-06T10:44:54.910Z,17.71
2019-05-06T10:45:55.136Z,15.48
2019-05-06T10:46:55.327Z,14.04
2019-05-06T10:47:55.499Z,13.97
2019-05-06T10:48:55.720Z,14.22
2019-05-06T10:49:55.929Z,13.61
2019-05-06T10:50:56.272Z,12.90
2019-05-06T10:51:56.316Z,12.65
2019-05-06T10:52:56.497Z,13.68
2019-05-06T10:53:56.663Z,15.04
2019-05-06T10:54:56.883Z,15.78
2019-05-06T10:55:57.043Z,16.03
2019-05-06T10:56:57.594Z,16.43
2019-05-06T10:57:58.407Z,17.07
2019-05-06T10:58:57.529Z,17.79
2019-05-06T10:59:57.707Z,18.12
2019-05-06T11:00:57.868Z,17.91
2019-05-06T11:01:58.016Z,18.23
2019-05-06T11:02:58.153Z,17.88
2019-05-06T11:03:58.302Z,18.21
2019-05-06T11:04:58.482Z,18.39
2019-05-06T11:05:58.664Z,18.00
2019-05-06T11:06:58.824Z,17.68
2019-05-06T11:07:58.994Z,17.23
2019-05-06T11:08:59.177Z,17.71
2019-05-06T11:09:59.387Z,16.25
2019-05-06T11:11:12.463Z,15.19
2019-05-06T11:12:03.242Z,13.73
2019-05-06T11:12:59.926Z,12.81
2019-05-06T11:14:00.138Z,12.50
2019-05-06T11:15:03.217Z,12.36
2019-05-06T11:16:03.188Z,12.29
2019-05-06T11:17:04.937Z,12.18
2019-05-06T11:18:04.009Z,11.93
2019-05-06T11:19:04.901Z,11.93
2019-05-06T11:20:03.448Z,11.97
2019-05-06T11:21:03.518Z,12.07
2019-05-06T11:22:03.677Z,12.10
2019-05-06T11:23:02.728Z,12.20
2019-05-06T11:24:06.016Z,12.76
2019-05-06T11:25:03.148Z,14.22
2019-05-06T11:26:03.376Z,14.92
2019-05-06T11:27:03.471Z,15.07
2019-05-06T11:28:03.577Z,14.87
2019-05-06T11:29:05.098Z,14.96
2019-05-06T11:30:03.939Z,15.14
2019-05-06T11:31:03.120Z,15.59
2019-05-06T11:32:03.321Z,15.85
2019-05-06T11:33:04.788Z,16.29
2019-05-06T11:34:04.716Z,16.26
2019-05-06T11:35:04.013Z,16.05
2019-05-06T11:36:04.113Z,15.59
2019-05-06T11:37:04.314Z,15.36
2019-05-06T11:38:04.558Z,14.81
2019-05-06T11:39:04.754Z,14.56
2019-05-06T11:40:04.984Z,14.20
2019-05-06T11:41:05.180Z,13.64
2019-05-06T11:42:23.778Z,12.90
2019-05-06T11:43:07.530Z,13.09
2019-05-06T11:44:08.837Z,13.05
2019-05-06T11:45:05.835Z,13.16
2019-05-06T11:46:06.072Z,13.09
2019-05-06T11:47:06.147Z,12.98
2019-05-06T11:48:06.333Z,12.84
2019-05-06T11:49:06.587Z,12.87
2019-05-06T11:50:06.706Z,13.20
2019-05-06T11:51:06.898Z,13.39
2019-05-06T11:52:07.125Z,13.03
2019-05-06T11:53:07.367Z,13.27
2019-05-06T11:54:16.489Z,13.47
2019-05-06T11:55:09.571Z,13.76
2019-05-06T11:56:07.711Z,13.93
2019-05-06T11:57:08.911Z,14.22
2019-05-06T11:58:08.037Z,14.36
2019-05-06T11:59:08.195Z,14.04
2019-05-06T12:00:08.357Z,14.13
2019-05-06T12:01:08.609Z,14.00
2019-05-06T12:02:08.648Z,13.78
2019-05-06T12:03:08.841Z,13.73
2019-05-06T12:04:09.001Z,13.70
2019-05-06T12:05:09.168Z,13.12
2019-05-06T12:06:09.335Z,12.99
2019-05-06T12:07:12.278Z,12.58
2019-05-06T12:08:15.208Z,12.36
2019-05-06T12:09:13.941Z,12.25
2019-05-06T12:10:12.681Z,12.18
2019-05-06T12:11:12.625Z,12.29
2019-05-06T12:12:12.617Z,12.10
2019-05-06T12:13:12.270Z,11.77
2019-05-06T12:14:12.409Z,11.68
2019-05-06T12:15:12.584Z,11.48
2019-05-06T12:16:14.149Z,11.31
2019-05-06T12:17:12.751Z,11.02
2019-05-06T12:18:12.560Z,11.00
2019-05-06T12:19:13.128Z,10.89
2019-05-06T12:20:13.074Z,10.80
2019-05-06T12:21:18.900Z,10.59
2019-05-06T12:22:13.168Z,10.51
2019-05-06T12:23:15.612Z,10.42
2019-05-06T12:24:13.506Z,10.39
2019-05-06T12:25:15.549Z,10.28
2019-05-06T12:26:13.956Z,10.06
2019-05-06T12:27:13.100Z,10.13
2019-05-06T12:28:17.450Z,10.02
2019-05-06T12:29:13.469Z,10.12
2019-05-06T12:30:13.611Z,10.09
2019-05-06T12:31:13.757Z,10.18
2019-05-06T12:32:13.950Z,10.23
2019-05-06T12:33:14.164Z,10.18
2019-05-06T12:34:14.744Z,10.18
2019-05-06T12:35:15.453Z,10.33
2019-05-06T12:36:14.607Z,10.31
2019-05-06T12:37:14.777Z,10.33
2019-05-06T12:38:26.699Z,10.25
2019-05-06T12:39:18.968Z,10.30
2019-05-06T12:40:16.286Z,10.34
2019-05-06T12:41:15.392Z,10.31
2019-05-06T12:42:16.676Z,10.41
2019-05-06T12:43:15.682Z,10.59
2019-05-06T12:44:15.871Z,10.68
2019-05-06T12:45:16.002Z,10.98
2019-05-06T12:46:16.160Z,10.92
2019-05-06T12:47:16.300Z,11.02
2019-05-06T12:48:16.448Z,10.94
2019-05-06T12:49:16.591Z,11.00
2019-05-06T12:50:16.815Z,11.00
2019-05-06T12:51:16.958Z,11.12
2019-05-06T12:52:17.077Z,11.25
2019-05-06T12:53:17.274Z,11.41
2019-05-06T12:54:17.448Z,11.35
2019-05-06T12:55:21.691Z,11.10
2019-05-06T12:56:19.847Z,11.01
2019-05-06T12:57:17.946Z,10.61
2019-05-06T12:58:21.022Z,10.36
2019-05-06T12:59:22.279Z,10.05
2019-05-06T13:00:18.372Z,9.56
2019-05-06T13:01:18.526Z,9.30
2019-05-06T13:02:18.679Z,8.93
2019-05-06T13:03:18.856Z,8.95
2019-05-06T13:04:18.998Z,8.71
2019-05-06T13:05:19.182Z,8.72
2019-05-06T13:06:19.469Z,8.78
2019-05-06T13:07:19.583Z,8.54
2019-05-06T13:08:21.296Z,8.61
2019-05-06T13:09:22.528Z,8.52
2019-05-06T13:10:23.113Z,8.52
2019-05-06T13:11:20.302Z,8.61